createdAt,value
2023-05-03T00:01:38.321Z,9.10
2023-05-03T00:04:05.139Z,8.80
2023-05-03T00:06:32.023Z,9.37
2023-05-03T00:08:58.945Z,8.40
2023-05-03T00:11:26.292Z,9.90
2023-05-03T00:13:53.049Z,8.07
2023-05-03T00:16:20.727Z,7.53
2023-05-03T00:18:49.118Z,8.37
2023-05-03T00:21:16.656Z,7.47
2023-05-03T00:23:43.449Z,9.30
2023-05-03T00:26:10.179Z,10.23
2023-05-03T00:28:37.186Z,8.40
2023-05-03T00:31:08.752Z,9.20
2023-05-03T00:33:36.543Z,10.17
2023-05-03T00:36:10.435Z,10.80
2023-05-03T00:38:37.404Z,8.73
2023-05-03T00:41:04.978Z,9.20
2023-05-03T00:43:32.339Z,10.70
2023-05-03T00:46:12.331Z,10.57
2023-05-03T00:48:43.384Z,11.00
2023-05-03T00:51:14.375Z,10.70
2023-05-03T00:53:42.683Z,10.87
2023-05-03T00:56:09.925Z,11.37
2023-05-03T00:58:40.158Z,10.60
2023-05-03T01:01:07.706Z,11.83
2023-05-03T01:03:37.716Z,10.03
2023-05-03T01:06:38.554Z,9.80
2023-05-03T01:09:20.782Z,11.00
2023-05-03T01:12:14.543Z,10.70
2023-05-03T01:15:07.460Z,10.53
2023-05-03T01:17:39.084Z,9.03
2023-05-03T01:20:10.833Z,9.30
2023-05-03T01:22:56.358Z,9.83
2023-05-03T01:25:23.131Z,10.37
2023-05-03T01:27:50.018Z,8.93
2023-05-03T01:30:17.104Z,8.70
2023-05-03T01:33:11.795Z,10.17
2023-05-03T01:36:02.152Z,10.30
2023-05-03T01:38:33.116Z,11.17
2023-05-03T01:41:02.448Z,9.80
2023-05-03T01:43:32.988Z,10.47
2023-05-03T01:46:00.148Z,10.40
2023-05-03T01:48:27.054Z,10.80
2023-05-03T01:50:53.775Z,10.10
2023-05-03T01:53:20.731Z,10.10
2023-05-03T01:55:47.457Z,10.93
2023-05-03T01:58:14.314Z,11.60
2023-05-03T02:00:41.042Z,9.47
2023-05-03T02:03:08.057Z,9.65
2023-05-03T02:05:35.485Z,9.60
2023-05-03T02:08:02.263Z,9.57
2023-05-03T02:10:29.049Z,9.53
2023-05-03T02:12:55.841Z,9.53
2023-05-03T02:15:22.550Z,10.80
2023-05-03T02:17:49.737Z,9.40
2023-05-03T02:20:16.791Z,9.90
2023-05-03T02:22:43.607Z,9.93
2023-05-03T02:25:10.409Z,10.83
2023-05-03T02:27:37.196Z,10.30
2023-05-03T02:30:04.584Z,11.10
2023-05-03T02:32:32.173Z,10.37
2023-05-03T02:34:59.137Z,11.60
2023-05-03T02:37:25.888Z,11.50
2023-05-03T02:39:52.711Z,12.00
2023-05-03T02:42:19.732Z,12.70
2023-05-03T02:44:46.576Z,14.67
2023-05-03T02:47:13.335Z,16.27
2023-05-03T02:49:40.043Z,15.20
2023-05-03T02:52:06.941Z,17.97
2023-05-03T02:54:33.632Z,17.13
2023-05-03T02:57:01.812Z,18.20
2023-05-03T02:59:29.165Z,17.80
2023-05-03T03:01:55.909Z,18.10
2023-05-03T03:04:22.853Z,18.73
2023-05-03T03:06:50.126Z,19.23
2023-05-03T03:09:17.715Z,19.40
2023-05-03T03:11:44.499Z,19.00
2023-05-03T03:14:11.266Z,18.67
2023-05-03T03:16:38.197Z,18.80
2023-05-03T03:19:04.963Z,19.40
2023-05-03T03:21:32.772Z,17.70
2023-05-03T03:23:59.511Z,18.23
2023-05-03T03:26:26.228Z,17.53
2023-05-03T03:28:52.981Z,18.43
2023-05-03T03:31:19.793Z,17.83
2023-05-03T03:33:46.654Z,17.07
2023-05-03T03:36:13.547Z,18.17
2023-05-03T03:38:41.263Z,17.90
2023-05-03T03:41:08.458Z,17.47
2023-05-03T03:43:35.254Z,16.10
2023-05-03T03:46:01.967Z,15.70
2023-05-03T03:48:28.706Z,17.03
2023-05-03T03:50:56.264Z,15.97
2023-05-03T03:53:23.334Z,15.10
2023-05-03T03:55:50.031Z,16.80
2023-05-03T03:58:16.738Z,16.37
2023-05-03T04:00:43.771Z,17.05
2023-05-03T04:03:10.607Z,16.93
2023-05-03T04:05:37.500Z,16.43
2023-05-03T04:08:04.418Z,17.83
2023-05-03T04:10:31.133Z,15.70
2023-05-03T04:12:57.829Z,15.17
2023-05-03T04:15:24.578Z,15.23
2023-05-03T04:17:51.436Z,13.80
2023-05-03T04:20:19.200Z,15.30
2023-05-03T04:22:45.965Z,14.50
2023-05-03T04:25:17.174Z,15.23
2023-05-03T04:27:45.147Z,15.07
2023-05-03T04:30:13.055Z,15.40
2023-05-03T04:32:40.717Z,15.40
2023-05-03T04:35:10.713Z,14.80
2023-05-03T04:37:38.142Z,15.67
2023-05-03T04:40:08.602Z,14.10
2023-05-03T04:42:36.296Z,12.47
2023-05-03T04:45:05.444Z,14.60
2023-05-03T04:47:32.528Z,13.20
2023-05-03T04:49:59.330Z,12.57
2023-05-03T04:52:27.031Z,13.07
2023-05-03T04:54:54.438Z,12.90
2023-05-03T04:57:21.204Z,12.60
2023-05-03T04:59:48.054Z,12.17
2023-05-03T05:02:14.874Z,12.17
2023-05-03T05:04:41.622Z,13.90
2023-05-03T05:07:08.364Z,13.63
2023-05-03T05:09:35.107Z,12.30
2023-05-03T05:12:02.050Z,11.57
2023-05-03T05:14:31.363Z,11.80
2023-05-03T05:16:58.737Z,11.90
2023-05-03T05:19:25.639Z,12.23
2023-05-03T05:21:52.813Z,11.63
2023-05-03T05:24:19.785Z,11.10
2023-05-03T05:26:46.670Z,11.83
2023-05-03T05:29:13.417Z,12.60
2023-05-03T05:31:40.218Z,12.67
2023-05-03T05:34:07.207Z,12.63
2023-05-03T05:36:34.029Z,13.07
2023-05-03T05:39:00.802Z,12.90
2023-05-03T05:41:27.734Z,11.70
2023-05-03T05:43:54.562Z,12.07
2023-05-03T05:46:21.593Z,12.70
2023-05-03T05:48:48.618Z,12.23
2023-05-03T05:51:15.379Z,12.50
2023-05-03T05:53:42.174Z,11.30
2023-05-03T05:56:09.026Z,11.90
2023-05-03T05:58:37.604Z,13.53
2023-05-03T06:01:05.602Z,13.00
2023-05-03T06:03:33.545Z,13.53
2023-05-03T06:06:01.152Z,13.27
2023-05-03T06:08:28.158Z,12.37
2023-05-03T06:10:54.931Z,12.60
2023-05-03T06:13:22.512Z,12.03
2023-05-03T06:15:49.358Z,13.30
2023-05-03T06:18:16.326Z,13.87
2023-05-03T06:20:43.172Z,14.73
2023-05-03T06:23:09.934Z,13.30
2023-05-03T06:25:36.692Z,13.67
2023-05-03T06:28:03.616Z,14.03
2023-05-03T06:30:31.155Z,14.47
2023-05-03T06:32:58.208Z,13.90
2023-05-03T06:35:25.035Z,16.00
2023-05-03T06:37:52.139Z,14.33
2023-05-03T06:40:19.112Z,13.57
2023-05-03T06:42:46.357Z,15.27
2023-05-03T06:45:13.222Z,15.90
2023-05-03T06:47:42.703Z,15.70
2023-05-03T06:50:10.621Z,14.73
2023-05-03T06:52:37.468Z,15.97
2023-05-03T06:55:05.029Z,14.30
2023-05-03T06:57:32.041Z,15.50
2023-05-03T06:59:59.349Z,15.80
2023-05-03T07:02:26.873Z,16.17
2023-05-03T07:04:53.946Z,15.23
2023-05-03T07:07:21.249Z,15.13
2023-05-03T07:09:48.253Z,15.73
2023-05-03T07:12:15.729Z,15.30
2023-05-03T07:14:42.981Z,16.60
2023-05-03T07:17:10.268Z,17.30
2023-05-03T07:19:37.581Z,16.90
2023-05-03T07:22:04.476Z,15.80
2023-05-03T07:24:31.222Z,15.50
2023-05-03T07:26:58.476Z,16.30
2023-05-03T07:29:26.199Z,16.37
2023-05-03T07:31:53.823Z,16.97
2023-05-03T07:34:21.263Z,15.50
2023-05-03T07:36:48.142Z,16.17
2023-05-03T07:39:14.925Z,16.00
2023-05-03T07:41:41.756Z,15.60
2023-05-03T07:44:08.625Z,16.97
2023-05-03T07:46:35.819Z,16.57
2023-05-03T07:49:06.339Z,15.60
2023-05-03T07:51:37.185Z,17.43
2023-05-03T07:54:04.492Z,15.23
2023-05-03T07:56:31.699Z,16.60
2023-05-03T07:59:08.400Z,16.40
2023-05-03T08:01:37.468Z,16.33
2023-05-03T08:04:04.829Z,17.43
2023-05-03T08:06:32.711Z,15.77
2023-05-03T08:08:59.566Z,16.27
2023-05-03T08:11:29.024Z,15.90
2023-05-03T08:13:56.351Z,14.73
2023-05-03T08:16:23.323Z,15.63
2023-05-03T08:18:50.456Z,14.00
2023-05-03T08:21:17.683Z,14.50
2023-05-03T08:23:45.132Z,15.17
2023-05-03T08:26:14.212Z,15.87
2023-05-03T08:28:41.421Z,15.83
2023-05-03T08:31:08.520Z,15.63
2023-05-03T08:33:35.495Z,23.50
2023-05-03T08:36:03.049Z,15.60
2023-05-03T08:38:29.983Z,14.77
2023-05-03T08:40:59.791Z,15.80
2023-05-03T08:43:28.692Z,15.13
2023-05-03T08:45:55.584Z,14.03
2023-05-03T08:48:22.822Z,13.43
2023-05-03T08:50:51.836Z,17.00
2023-05-03T08:53:18.758Z,13.40
2023-05-03T08:55:45.732Z,14.00
2023-05-03T08:58:13.651Z,15.63
2023-05-03T09:00:44.832Z,16.27
2023-05-03T09:03:12.593Z,15.07
2023-05-03T09:05:40.568Z,14.83
2023-05-03T09:08:17.041Z,13.90
2023-05-03T09:10:43.849Z,15.00
2023-05-03T09:13:11.874Z,14.60
2023-05-03T09:15:38.827Z,15.33
2023-05-03T09:18:17.494Z,15.20
2023-05-03T09:20:56.804Z,15.87
2023-05-03T09:23:29.728Z,14.93
2023-05-03T09:25:57.849Z,14.50
2023-05-03T09:28:26.073Z,15.00
2023-05-03T09:31:07.143Z,17.23
2023-05-03T09:33:34.213Z,14.20
2023-05-03T09:36:02.353Z,14.53
2023-05-03T09:38:34.906Z,14.50
2023-05-03T09:41:01.781Z,14.13
2023-05-03T09:43:28.830Z,12.83
2023-05-03T09:46:13.999Z,13.47
2023-05-03T09:48:41.641Z,13.30
2023-05-03T09:51:10.033Z,13.83
2023-05-03T09:53:38.302Z,13.57
2023-05-03T09:56:12.343Z,13.00
2023-05-03T09:58:40.475Z,13.87
2023-05-03T10:01:08.638Z,13.37
2023-05-03T10:03:42.125Z,12.57
2023-05-03T10:06:33.721Z,12.97
2023-05-03T10:09:06.061Z,12.33
2023-05-03T10:11:36.365Z,13.20
2023-05-03T10:14:05.765Z,13.10
2023-05-03T10:16:41.986Z,13.20
2023-05-03T10:19:34.566Z,12.03
2023-05-03T10:22:09.824Z,11.47
2023-05-03T10:25:00.284Z,11.80
2023-05-03T10:27:54.339Z,12.33
2023-05-03T10:30:37.580Z,10.77
2023-05-03T10:33:10.254Z,11.37
2023-05-03T10:35:40.295Z,10.10
2023-05-03T10:38:18.326Z,12.60
2023-05-03T10:40:45.086Z,14.30
2023-05-03T10:43:30.264Z,11.23
2023-05-03T10:46:01.800Z,12.90
2023-05-03T10:48:29.764Z,12.60
2023-05-03T10:50:57.456Z,8.67
2023-05-03T10:53:36.698Z,9.60
2023-05-03T10:56:15.317Z,10.37
2023-05-03T10:58:42.822Z,9.27
2023-05-03T11:01:12.069Z,9.60
2023-05-03T11:03:38.966Z,10.60
2023-05-03T11:06:05.859Z,9.27
2023-05-03T11:08:37.776Z,8.97
2023-05-03T11:11:09.877Z,9.73
2023-05-03T11:13:37.332Z,9.70
2023-05-03T11:16:05.958Z,8.93
2023-05-03T11:18:33.440Z,8.87
2023-05-03T11:21:00.215Z,9.20
2023-05-03T11:23:31.418Z,9.00
2023-05-03T11:25:58.336Z,9.40
2023-05-03T11:28:25.876Z,9.40
2023-05-03T11:30:52.897Z,9.40
2023-05-03T11:33:19.685Z,8.00
2023-05-03T11:35:47.082Z,8.37
2023-05-03T11:38:13.953Z,8.97
2023-05-03T11:40:41.491Z,9.13
2023-05-03T11:43:08.298Z,10.33
2023-05-03T11:45:44.152Z,8.90
2023-05-03T11:48:12.936Z,6.77
2023-05-03T11:50:51.597Z,7.60
2023-05-03T11:53:18.952Z,7.73
2023-05-03T11:55:48.467Z,7.73
2023-05-03T11:58:24.818Z,6.43
2023-05-03T12:00:56.482Z,6.60
2023-05-03T12:03:30.164Z,8.07
2023-05-03T12:05:58.651Z,7.60
2023-05-03T12:08:31.597Z,7.87
2023-05-03T12:11:02.797Z,7.37
2023-05-03T12:13:39.726Z,9.07
2023-05-03T12:16:14.192Z,8.20
2023-05-03T12:18:50.289Z,8.37
2023-05-03T12:23:55.849Z,8.00
2023-05-03T12:26:23.543Z,8.03
2023-05-03T12:28:50.517Z,6.87
2023-05-03T12:31:22.719Z,7.50
2023-05-03T12:34:12.233Z,7.50
2023-05-03T12:36:38.210Z,6.47
2023-05-03T12:39:09.239Z,7.23
2023-05-03T12:44:10.228Z,8.33
2023-05-03T12:46:39.128Z,8.17
2023-05-03T12:49:08.204Z,8.30
2023-05-03T12:51:36.089Z,7.23
2023-05-03T12:54:10.037Z,6.93
2023-05-03T12:56:40.106Z,7.17
2023-05-03T12:59:39.028Z,8.50
2023-05-03T13:06:59.085Z,7.70
2023-05-03T13:09:38.055Z,8.20
2023-05-03T13:12:14.888Z,8.60
2023-05-03T13:14:42.951Z,6.77
2023-05-03T13:17:10.307Z,6.60
2023-05-03T13:19:37.740Z,6.33
2023-05-03T13:22:04.593Z,5.73
2023-05-03T13:24:31.354Z,7.50
2023-05-03T13:26:58.396Z,6.47
2023-05-03T13:29:25.255Z,6.10
2023-05-03T13:31:52.291Z,6.67
2023-05-03T13:34:19.074Z,6.77
2023-05-03T13:36:45.860Z,6.27
2023-05-03T13:39:12.630Z,6.53
2023-05-03T13:41:42.019Z,5.60
2023-05-03T13:44:09.828Z,6.80
2023-05-03T13:46:37.308Z,6.47
2023-05-03T13:49:08.131Z,7.00
2023-05-03T13:51:35.844Z,6.60
2023-05-03T13:54:05.104Z,6.60
2023-05-03T13:56:32.495Z,5.87
2023-05-03T13:58:59.388Z,7.07
2023-05-03T14:01:27.851Z,6.90
2023-05-03T14:03:55.331Z,7.27
2023-05-03T14:06:23.582Z,7.10
2023-05-03T14:08:50.922Z,6.90
2023-05-03T14:11:19.227Z,6.60
2023-05-03T14:13:56.436Z,6.63
2023-05-03T14:18:56.126Z,5.27
2023-05-03T14:21:22.957Z,5.33
2023-05-03T14:23:50.752Z,4.80
2023-05-03T14:26:17.931Z,4.97
2023-05-03T14:28:44.825Z,5.87
2023-05-03T14:31:13.209Z,5.23
2023-05-03T14:33:40.325Z,4.83
2023-05-03T14:36:08.610Z,5.07
2023-05-03T14:38:37.258Z,6.97
2023-05-03T14:41:04.558Z,7.10
2023-05-03T14:43:32.476Z,7.90
2023-05-03T14:45:59.390Z,6.13
2023-05-03T14:48:26.215Z,7.00
2023-05-03T14:50:53.590Z,7.00
2023-05-03T14:53:21.836Z,5.23
2023-05-03T14:55:48.733Z,5.70
2023-05-03T14:58:15.960Z,4.90
2023-05-03T15:00:43.530Z,4.70
2023-05-03T15:03:12.150Z,4.30
2023-05-03T15:05:47.545Z,5.00
2023-05-03T15:08:15.900Z,4.80
2023-05-03T15:10:44.701Z,4.40
2023-05-03T15:13:12.730Z,7.77
2023-05-03T15:15:40.894Z,6.40
2023-05-03T15:18:08.715Z,4.60
2023-05-03T15:20:36.183Z,5.47
2023-05-03T15:23:04.599Z,5.33
2023-05-03T15:25:31.812Z,5.83
2023-05-03T15:28:00.561Z,4.73
2023-05-03T15:30:29.663Z,4.73
2023-05-03T15:32:56.481Z,4.60
2023-05-03T15:35:23.364Z,4.80
2023-05-03T15:37:50.125Z,4.20
2023-05-03T15:40:18.820Z,4.77
2023-05-03T15:42:45.579Z,4.20
2023-05-03T15:45:13.205Z,4.30
2023-05-03T15:47:40.133Z,4.53
2023-05-03T15:50:08.352Z,4.37
2023-05-03T15:52:35.918Z,4.73
2023-05-03T15:55:03.114Z,5.40
2023-05-03T15:57:30.526Z,4.50
2023-05-03T15:59:57.459Z,4.30
2023-05-03T16:02:24.412Z,3.93
2023-05-03T16:04:51.271Z,3.87
2023-05-03T16:07:18.302Z,3.73
2023-05-03T16:09:46.207Z,4.10
2023-05-03T16:12:12.894Z,4.30
2023-05-03T16:14:40.047Z,4.33
2023-05-03T16:17:06.810Z,3.80
2023-05-03T16:19:33.768Z,4.80
2023-05-03T16:22:00.732Z,4.57
2023-05-03T16:24:28.474Z,4.30
2023-05-03T16:26:55.422Z,5.00
2023-05-03T16:29:22.343Z,4.90
2023-05-03T16:31:49.606Z,5.13
2023-05-03T16:34:16.754Z,4.03
2023-05-03T16:36:44.164Z,4.97
2023-05-03T16:39:14.707Z,5.30
2023-05-03T16:41:41.950Z,4.97
2023-05-03T16:44:08.997Z,4.60
2023-05-03T16:46:37.938Z,3.93
2023-05-03T16:49:05.258Z,4.10
2023-05-03T16:51:32.742Z,5.10
2023-05-03T16:54:00.572Z,4.10
2023-05-03T16:56:30.563Z,4.10
2023-05-03T16:58:57.359Z,4.83
2023-05-03T17:01:24.152Z,4.33
2023-05-03T17:03:51.117Z,3.93
2023-05-03T17:06:18.363Z,3.80
2023-05-03T17:08:45.529Z,4.40
2023-05-03T17:11:15.097Z,3.83
2023-05-03T17:13:42.069Z,4.10
2023-05-03T17:16:15.159Z,3.80
2023-05-03T17:18:42.665Z,3.63
2023-05-03T17:21:10.247Z,4.00
2023-05-03T17:23:39.275Z,4.70
2023-05-03T17:26:11.028Z,4.23
2023-05-03T17:28:38.220Z,4.30
2023-05-03T17:31:08.855Z,4.70
2023-05-03T17:33:36.144Z,4.67
2023-05-03T17:36:05.091Z,4.13
2023-05-03T17:38:33.733Z,4.10
2023-05-03T17:41:07.606Z,3.93
2023-05-03T17:43:38.354Z,3.83
2023-05-03T17:46:11.458Z,4.80
2023-05-03T17:48:46.728Z,4.07
2023-05-03T17:51:14.192Z,3.80
2023-05-03T17:53:42.471Z,4.37
2023-05-03T17:56:19.207Z,3.77
2023-05-03T17:58:46.863Z,4.20
2023-05-03T18:01:15.916Z,4.50
2023-05-03T18:03:43.175Z,4.13
2023-05-03T18:06:12.126Z,4.97
2023-05-03T18:08:39.187Z,4.77
2023-05-03T18:11:06.004Z,5.50
2023-05-03T18:13:36.495Z,5.07
2023-05-03T18:16:07.738Z,6.33
2023-05-03T18:18:34.664Z,4.90
2023-05-03T18:21:03.800Z,5.43
2023-05-03T18:23:31.663Z,5.43
2023-05-03T18:25:59.746Z,5.23
2023-05-03T18:28:26.543Z,6.17
2023-05-03T18:30:55.660Z,4.77
2023-05-03T18:33:22.454Z,4.33
2023-05-03T18:35:50.234Z,6.97
2023-05-03T18:38:19.220Z,4.00
2023-05-03T18:40:46.945Z,4.67
2023-05-03T18:43:13.940Z,4.80
2023-05-03T18:45:41.144Z,4.90
2023-05-03T18:48:08.527Z,4.80
2023-05-03T18:50:39.322Z,5.57
2023-05-03T18:53:06.739Z,6.27
2023-05-03T18:55:33.605Z,5.63
2023-05-03T18:58:00.690Z,5.27
2023-05-03T19:00:27.865Z,5.23
2023-05-03T19:02:54.728Z,5.80
2023-05-03T19:05:21.604Z,5.67
2023-05-03T19:07:48.794Z,5.70
2023-05-03T19:10:16.745Z,6.37
2023-05-03T19:12:44.440Z,5.40
2023-05-03T19:15:12.092Z,5.90
2023-05-03T19:17:41.853Z,5.80
2023-05-03T19:20:10.439Z,6.30
2023-05-03T19:22:37.766Z,7.60
2023-05-03T19:25:05.428Z,6.90
2023-05-03T19:27:32.686Z,6.17
2023-05-03T19:29:59.489Z,6.20
2023-05-03T19:32:26.461Z,6.07
2023-05-03T19:34:53.262Z,7.07
2023-05-03T19:37:20.162Z,6.57
2023-05-03T19:39:46.986Z,5.87
2023-05-03T19:42:13.718Z,5.20
2023-05-03T19:44:40.572Z,7.10
2023-05-03T19:47:07.270Z,8.67
2023-05-03T19:49:34.070Z,7.13
2023-05-03T19:52:02.036Z,6.67
2023-05-03T19:54:29.844Z,7.10
2023-05-03T19:56:56.637Z,6.30
2023-05-03T19:59:23.446Z,6.30
2023-05-03T20:01:50.486Z,7.43
2023-05-03T20:04:17.434Z,6.90
2023-05-03T20:06:44.387Z,6.90
2023-05-03T20:09:11.241Z,7.37
2023-05-03T20:11:37.974Z,6.80
2023-05-03T20:14:04.688Z,6.77
2023-05-03T20:16:33.434Z,7.33
2023-05-03T20:19:01.183Z,6.70
2023-05-03T20:21:28.470Z,7.57
2023-05-03T20:23:55.245Z,8.23
2023-05-03T20:26:22.107Z,7.10
2023-05-03T20:28:49.027Z,7.50
2023-05-03T20:31:15.908Z,7.20
2023-05-03T20:33:42.802Z,7.57
2023-05-03T20:36:12.034Z,6.80
2023-05-03T20:38:38.826Z,7.07
2023-05-03T20:41:05.596Z,6.87
2023-05-03T20:43:32.308Z,6.20
2023-05-03T20:45:59.069Z,6.73
2023-05-03T20:48:25.869Z,6.90
2023-05-03T20:50:52.591Z,6.93
2023-05-03T20:53:19.418Z,8.03
2023-05-03T20:55:46.199Z,7.57
2023-05-03T20:58:13.035Z,7.90
2023-05-03T21:00:39.762Z,13.03
2023-05-03T21:03:06.663Z,10.40
2023-05-03T21:05:33.549Z,9.30
2023-05-03T21:08:00.374Z,9.20
2023-05-03T21:10:27.098Z,8.03
2023-05-03T21:12:53.937Z,9.20
2023-05-03T21:15:20.875Z,7.43
2023-05-03T21:17:47.727Z,8.10
2023-05-03T21:20:14.583Z,8.27
2023-05-03T21:22:41.378Z,9.10
2023-05-03T21:25:08.789Z,8.90
2023-05-03T21:27:35.625Z,9.00
2023-05-03T21:30:02.683Z,7.83
2023-05-03T21:32:29.626Z,8.90
2023-05-03T21:34:56.803Z,8.47
2023-05-03T21:37:23.556Z,8.33
2023-05-03T21:40:00.430Z,9.13
2023-05-03T21:42:28.657Z,8.37
2023-05-03T21:44:55.780Z,8.90
2023-05-03T21:47:22.535Z,8.20
2023-05-03T21:49:49.888Z,9.80
2023-05-03T21:52:16.632Z,9.53
2023-05-03T21:54:43.545Z,8.97
2023-05-03T21:57:10.289Z,9.83
2023-05-03T21:59:37.389Z,8.60
2023-05-03T22:02:04.759Z,9.17
2023-05-03T22:04:31.653Z,9.27
2023-05-03T22:06:58.595Z,8.93
2023-05-03T22:09:25.347Z,9.33
2023-05-03T22:11:52.305Z,9.37
2023-05-03T22:14:19.053Z,9.17
2023-05-03T22:16:45.817Z,8.50
2023-05-03T22:19:13.324Z,9.10
2023-05-03T22:21:40.086Z,8.90
2023-05-03T22:24:07.633Z,9.40
2023-05-03T22:26:34.497Z,9.70
2023-05-03T22:29:01.740Z,8.30
2023-05-03T22:31:30.246Z,9.70
2023-05-03T22:33:57.534Z,8.90
2023-05-03T22:36:24.357Z,8.37
2023-05-03T22:38:55.146Z,8.80
2023-05-03T22:41:31.888Z,9.80
2023-05-03T22:43:58.685Z,8.67
2023-05-03T22:46:26.018Z,9.70
2023-05-03T22:48:52.842Z,9.07
2023-05-03T22:51:19.682Z,9.70
2023-05-03T22:53:46.509Z,9.27
2023-05-03T22:56:13.500Z,9.37
2023-05-03T22:58:40.279Z,9.50
2023-05-03T23:01:13.762Z,9.40
2023-05-03T23:03:41.577Z,9.73
2023-05-03T23:06:08.390Z,10.70
2023-05-03T23:08:36.244Z,9.70
2023-05-03T23:11:03.083Z,9.67
2023-05-03T23:13:29.968Z,10.03
2023-05-03T23:15:57.231Z,10.00
2023-05-03T23:18:24.107Z,10.50
2023-05-03T23:20:51.108Z,10.73
2023-05-03T23:23:17.890Z,10.20
2023-05-03T23:25:44.639Z,11.33
2023-05-03T23:28:11.827Z,9.40
2023-05-03T23:30:43.760Z,10.70
2023-05-03T23:33:11.260Z,11.40
2023-05-03T23:35:38.516Z,10.70
2023-05-03T23:38:05.399Z,10.17
2023-05-03T23:40:32.232Z,11.33
2023-05-03T23:42:58.988Z,10.00
2023-05-03T23:45:27.017Z,10.00
2023-05-03T23:47:54.124Z,9.70
2023-05-03T23:50:21.124Z,10.80
2023-05-03T23:52:47.925Z,10.33
2023-05-03T23:55:14.712Z,10.97
2023-05-03T23:57:41.510Z,12.47
